Darnestown, Maryland
Current Conditions -  °F | °C
As of 11:55 AM on Monday 22 Dec 2014 (Local Time) from KGAI Reporting Station
Overcast Overcast  
Wind Chill: 34°   Ceiling: 4100
Heat Index: 34°   Visibility: 10mi
Dew Point: 25°   Wind: 0mph
Humidity: 70%   Direction: NA
Pressure: 30.3"   Gusts: NA
Location:  39.1148°N, 77.252°W
Report Text: KGAI 221655Z 00000KT 10SM OVC041 01/M04 A3030 RMK AO1
Loading
Personal Weather Stations






























Interactive Weather Map New forecast layout! Learn more

10-Day Weather Forecast

Advertisements
Track Severe Weather on mobile